Главная страница
METAR-TAF:

METAR-TAF

Аэропорты :

Уилмингтон, Делавэр, США

широта: 39-40-22N, долгота: 075-36-03W, высота над уровнем моря: 24 м

Текущие метеонаблюдения

Эта сводка был подготовлена 56 минут назад, в 20:51 UTC
Ветер 4 Узел переменных направлений
Температура 18°C
Влажность 32%
Давление 1027 hPa
Видимость: 16.1 км
ясное небо

METAR: KILG 192051Z VRB04KT 10SM CLR 18/01 A3032 RMK AO2 SLP265 T01830006 56008

Время: 17:47 (21:47 UTC)

Прогноз

Эта сводка был подготовлена 4 часа и 22 минут назад, в 17:25 UTC
Прогноз действительный с 19-го 18 UTC до 20-го 18 UTC
Ветер 10 Узел от северо-северо-восточный
Видимость: 10 км
ясное небо
С 19-го 2300 UTC
Ветер 5 Узел от северо-северо-восточный
Видимость: 10 км
ясное небо
С 20-го 1600 UTC
Ветер 10 Узел от северо-восточный
Видимость: 10 км
ясное небо

TAF: KILG 191725Z 1918/2018 03010KT P6SM SKC FM192300 02005KT P6SM SKC FM201600 04010KT P6SM SKC

Метеонаблюдения и прогнозы для более 4000 аэропортов (сводки METAR и TAF).

Имеющиеся станции представлены на карте желтыми и красными точками.

Чтобы увидеть название станции, наведите на нее мышь.

Затем щелкните, чтобы увидеть метеонаблюдения и метеопрогнозы.

Управление картой: чтобы увеличить масштаб, щелкните зеленые кнопки с черным крестиком; чтобы уменьшить масштаб, щелкните зеленую кнопку с тире; для просмотра соседних карт щелкайте зеленые стрелки.


METAR-TAF: